sensor_id;sensor_type;location;lat;lon;timestamp;temperature;humidity
75442;DHT22;64019;48.312;14.226;2024-01-16T00:01:21;0.50;99.90
75442;DHT22;64019;48.312;14.226;2024-01-16T00:03:47;0.50;99.90
75442;DHT22;64019;48.312;14.226;2024-01-16T00:06:13;0.40;99.90
75442;DHT22;64019;48.312;14.226;2024-01-16T00:08:38;0.40;99.90
75442;DHT22;64019;48.312;14.226;2024-01-16T00:11:04;0.30;99.90
75442;DHT22;64019;48.312;14.226;2024-01-16T00:13:31;0.30;99.90
75442;DHT22;64019;48.312;14.226;2024-01-16T00:15:57;0.30;99.90
75442;DHT22;64019;48.312;14.226;2024-01-16T00:18:23;0.20;99.90
75442;DHT22;64019;48.312;14.226;2024-01-16T00:20:49;0.20;99.90
75442;DHT22;64019;48.312;14.226;2024-01-16T00:23:15;0.20;99.90
75442;DHT22;64019;48.312;14.226;2024-01-16T00:25:40;0.30;99.90
75442;DHT22;64019;48.312;14.226;2024-01-16T00:28:07;0.20;99.90
75442;DHT22;64019;48.312;14.226;2024-01-16T00:30:33;0.20;99.90
75442;DHT22;64019;48.312;14.226;2024-01-16T00:32:59;0.20;99.90
75442;DHT22;64019;48.312;14.226;2024-01-16T00:35:25;0.20;99.90
75442;DHT22;64019;48.312;14.226;2024-01-16T00:37:51;0.10;99.90
75442;DHT22;64019;48.312;14.226;2024-01-16T00:40:17;0.10;99.90
75442;DHT22;64019;48.312;14.226;2024-01-16T00:42:43;0.10;99.90
75442;DHT22;64019;48.312;14.226;2024-01-16T00:45:09;0.10;99.90
75442;DHT22;64019;48.312;14.226;2024-01-16T00:47:34;0.10;99.90
75442;DHT22;64019;48.312;14.226;2024-01-16T00:50:03;0.10;99.90
75442;DHT22;64019;48.312;14.226;2024-01-16T00:52:31;0.00;99.90
75442;DHT22;64019;48.312;14.226;2024-01-16T00:54:57;0.00;99.90
75442;DHT22;64019;48.312;14.226;2024-01-16T00:57:23;0.00;99.90
75442;DHT22;64019;48.312;14.226;2024-01-16T00:59:49;0.00;99.90
75442;DHT22;64019;48.312;14.226;2024-01-16T01:02:15;0.00;99.90
75442;DHT22;64019;48.312;14.226;2024-01-16T01:04:40;0.00;99.90
75442;DHT22;64019;48.312;14.226;2024-01-16T01:07:07;0.00;99.90
75442;DHT22;64019;48.312;14.226;2024-01-16T01:09:34;0.00;99.90
75442;DHT22;64019;48.312;14.226;2024-01-16T01:12:00;0.00;99.90
75442;DHT22;64019;48.312;14.226;2024-01-16T01:14:25;0.00;99.90
75442;DHT22;64019;48.312;14.226;2024-01-16T01:16:54;0.00;99.90
75442;DHT22;64019;48.312;14.226;2024-01-16T01:19:20;0.00;99.90
75442;DHT22;64019;48.312;14.226;2024-01-16T01:21:46;0.00;99.90
75442;DHT22;64019;48.312;14.226;2024-01-16T01:24:11;0.00;99.90
75442;DHT22;64019;48.312;14.226;2024-01-16T01:26:37;0.00;99.90
75442;DHT22;64019;48.312;14.226;2024-01-16T01:29:03;0.00;99.90
75442;DHT22;64019;48.312;14.226;2024-01-16T01:31:28;0.00;99.90
75442;DHT22;64019;48.312;14.226;2024-01-16T01:33:54;0.00;99.90
75442;DHT22;64019;48.312;14.226;2024-01-16T01:36:20;0.00;99.90
75442;DHT22;64019;48.312;14.226;2024-01-16T01:38:45;0.00;99.90
75442;DHT22;64019;48.312;14.226;2024-01-16T01:41:11;0.00;99.90
75442;DHT22;64019;48.312;14.226;2024-01-16T01:43:40;0.00;99.90
75442;DHT22;64019;48.312;14.226;2024-01-16T01:46:16;0.00;99.90
75442;DHT22;64019;48.312;14.226;2024-01-16T01:48:43;0.00;99.90
75442;DHT22;64019;48.312;14.226;2024-01-16T01:51:14;0.10;99.90
75442;DHT22;64019;48.312;14.226;2024-01-16T01:53:42;0.00;99.90
75442;DHT22;64019;48.312;14.226;2024-01-16T01:56:14;0.10;99.90
75442;DHT22;64019;48.312;14.226;2024-01-16T01:58:42;0.10;99.90
75442;DHT22;64019;48.312;14.226;2024-01-16T02:01:09;0.10;99.90
75442;DHT22;64019;48.312;14.226;2024-01-16T02:03:43;0.10;99.90
75442;DHT22;64019;48.312;14.226;2024-01-16T02:06:10;0.10;99.90
75442;DHT22;64019;48.312;14.226;2024-01-16T02:08:37;0.10;99.90
75442;DHT22;64019;48.312;14.226;2024-01-16T02:11:02;0.10;99.90
75442;DHT22;64019;48.312;14.226;2024-01-16T02:13:28;0.10;99.90
75442;DHT22;64019;48.312;14.226;2024-01-16T02:15:54;0.10;99.90
75442;DHT22;64019;48.312;14.226;2024-01-16T02:18:20;0.10;99.90
75442;DHT22;64019;48.312;14.226;2024-01-16T02:20:46;0.10;99.90
75442;DHT22;64019;48.312;14.226;2024-01-16T02:23:14;0.10;99.90
75442;DHT22;64019;48.312;14.226;2024-01-16T02:25:41;0.10;99.90
75442;DHT22;64019;48.312;14.226;2024-01-16T02:28:07;0.20;99.90
75442;DHT22;64019;48.312;14.226;2024-01-16T02:30:33;0.10;99.90
75442;DHT22;64019;48.312;14.226;2024-01-16T02:32:59;0.10;99.90
75442;DHT22;64019;48.312;14.226;2024-01-16T02:35:25;0.20;99.90
75442;DHT22;64019;48.312;14.226;2024-01-16T02:37:51;0.20;99.90
75442;DHT22;64019;48.312;14.226;2024-01-16T02:40:17;0.10;99.90
75442;DHT22;64019;48.312;14.226;2024-01-16T02:42:42;0.10;99.90
75442;DHT22;64019;48.312;14.226;2024-01-16T02:45:08;0.10;99.90
75442;DHT22;64019;48.312;14.226;2024-01-16T02:47:34;0.10;99.90
75442;DHT22;64019;48.312;14.226;2024-01-16T02:50:01;0.10;99.90
75442;DHT22;64019;48.312;14.226;2024-01-16T02:52:27;0.00;99.90
75442;DHT22;64019;48.312;14.226;2024-01-16T02:54:52;0.00;99.90
75442;DHT22;64019;48.312;14.226;2024-01-16T02:57:18;0.00;99.90
75442;DHT22;64019;48.312;14.226;2024-01-16T02:59:44;0.00;99.90
75442;DHT22;64019;48.312;14.226;2024-01-16T03:02:10;0.00;99.90
75442;DHT22;64019;48.312;14.226;2024-01-16T03:04:37;0.00;99.90
75442;DHT22;64019;48.312;14.226;2024-01-16T03:07:02;0.10;99.90
75442;DHT22;64019;48.312;14.226;2024-01-16T03:09:28;0.10;99.90
75442;DHT22;64019;48.312;14.226;2024-01-16T03:11:54;0.10;99.90
75442;DHT22;64019;48.312;14.226;2024-01-16T03:14:20;0.10;99.90
75442;DHT22;64019;48.312;14.226;2024-01-16T03:16:45;0.20;99.90
75442;DHT22;64019;48.312;14.226;2024-01-16T03:19:12;0.10;99.90
75442;DHT22;64019;48.312;14.226;2024-01-16T03:21:38;0.20;99.90
75442;DHT22;64019;48.312;14.226;2024-01-16T03:24:05;0.20;99.90
75442;DHT22;64019;48.312;14.226;2024-01-16T03:26:33;0.20;99.90
75442;DHT22;64019;48.312;14.226;2024-01-16T03:28:59;0.20;99.90
75442;DHT22;64019;48.312;14.226;2024-01-16T03:31:25;0.20;99.90
75442;DHT22;64019;48.312;14.226;2024-01-16T03:33:51;0.20;99.90
75442;DHT22;64019;48.312;14.226;2024-01-16T03:36:17;0.20;99.90
75442;DHT22;64019;48.312;14.226;2024-01-16T03:38:43;0.20;99.90
75442;DHT22;64019;48.312;14.226;2024-01-16T03:41:11;0.20;99.90
75442;DHT22;64019;48.312;14.226;2024-01-16T03:43:37;0.30;99.90
75442;DHT22;64019;48.312;14.226;2024-01-16T03:46:03;0.20;99.90
75442;DHT22;64019;48.312;14.226;2024-01-16T03:48:29;0.20;99.90
75442;DHT22;64019;48.312;14.226;2024-01-16T03:50:55;0.30;99.90
75442;DHT22;64019;48.312;14.226;2024-01-16T03:53:22;0.20;99.90
75442;DHT22;64019;48.312;14.226;2024-01-16T03:55:48;0.20;99.90
75442;DHT22;64019;48.312;14.226;2024-01-16T03:58:15;0.20;99.90
75442;DHT22;64019;48.312;14.226;2024-01-16T04:00:41;0.30;99.90
75442;DHT22;64019;48.312;14.226;2024-01-16T04:03:07;0.30;99.90
75442;DHT22;64019;48.312;14.226;2024-01-16T04:05:33;0.30;99.90
75442;DHT22;64019;48.312;14.226;2024-01-16T04:07:59;0.30;99.90
75442;DHT22;64019;48.312;14.226;2024-01-16T04:10:25;0.30;99.90
75442;DHT22;64019;48.312;14.226;2024-01-16T04:12:51;0.30;99.90
75442;DHT22;64019;48.312;14.226;2024-01-16T04:15:17;0.30;99.90
75442;DHT22;64019;48.312;14.226;2024-01-16T04:17:43;0.30;99.90
75442;DHT22;64019;48.312;14.226;2024-01-16T04:20:09;0.30;99.90
75442;DHT22;64019;48.312;14.226;2024-01-16T04:22:35;0.30;99.90
75442;DHT22;64019;48.312;14.226;2024-01-16T04:25:01;0.30;99.90
75442;DHT22;64019;48.312;14.226;2024-01-16T04:27:30;0.30;99.90
75442;DHT22;64019;48.312;14.226;2024-01-16T04:29:56;0.30;99.90
75442;DHT22;64019;48.312;14.226;2024-01-16T04:32:22;0.40;99.90
75442;DHT22;64019;48.312;14.226;2024-01-16T04:34:48;0.40;99.90
75442;DHT22;64019;48.312;14.226;2024-01-16T04:37:13;0.40;99.90
75442;DHT22;64019;48.312;14.226;2024-01-16T04:39:39;0.40;99.90
75442;DHT22;64019;48.312;14.226;2024-01-16T04:42:05;0.40;99.90
75442;DHT22;64019;48.312;14.226;2024-01-16T04:44:30;0.40;99.90
75442;DHT22;64019;48.312;14.226;2024-01-16T04:46:56;0.40;99.90
75442;DHT22;64019;48.312;14.226;2024-01-16T04:49:22;0.40;99.90
75442;DHT22;64019;48.312;14.226;2024-01-16T04:51:47;0.40;99.90
75442;DHT22;64019;48.312;14.226;2024-01-16T04:54:13;0.40;99.90
75442;DHT22;64019;48.312;14.226;2024-01-16T04:56:39;0.40;99.90
75442;DHT22;64019;48.312;14.226;2024-01-16T04:59:04;0.40;99.90
75442;DHT22;64019;48.312;14.226;2024-01-16T05:01:31;0.40;99.90
75442;DHT22;64019;48.312;14.226;2024-01-16T05:03:56;0.40;99.90
75442;DHT22;64019;48.312;14.226;2024-01-16T05:06:22;0.30;99.90
75442;DHT22;64019;48.312;14.226;2024-01-16T05:08:48;0.30;99.90
75442;DHT22;64019;48.312;14.226;2024-01-16T05:11:14;0.30;99.90
75442;DHT22;64019;48.312;14.226;2024-01-16T05:13:39;0.30;99.90
75442;DHT22;64019;48.312;14.226;2024-01-16T05:16:06;0.20;99.90
75442;DHT22;64019;48.312;14.226;2024-01-16T05:18:31;0.20;99.90
75442;DHT22;64019;48.312;14.226;2024-01-16T05:21:00;0.20;99.90
75442;DHT22;64019;48.312;14.226;2024-01-16T05:23:27;0.20;99.90
75442;DHT22;64019;48.312;14.226;2024-01-16T05:25:53;0.10;99.90
75442;DHT22;64019;48.312;14.226;2024-01-16T05:28:19;0.10;99.90
75442;DHT22;64019;48.312;14.226;2024-01-16T05:30:45;0.10;99.90
75442;DHT22;64019;48.312;14.226;2024-01-16T05:33:11;0.10;99.90
75442;DHT22;64019;48.312;14.226;2024-01-16T05:35:36;0.10;99.90
75442;DHT22;64019;48.312;14.226;2024-01-16T05:38:02;0.10;99.90
75442;DHT22;64019;48.312;14.226;2024-01-16T05:40:29;0.10;99.90
75442;DHT22;64019;48.312;14.226;2024-01-16T05:42:55;0.00;99.90
75442;DHT22;64019;48.312;14.226;2024-01-16T05:45:21;0.00;99.90
75442;DHT22;64019;48.312;14.226;2024-01-16T05:47:47;0.00;99.90
75442;DHT22;64019;48.312;14.226;2024-01-16T05:50:13;0.00;99.90
75442;DHT22;64019;48.312;14.226;2024-01-16T05:52:39;0.00;99.90
75442;DHT22;64019;48.312;14.226;2024-01-16T05:55:06;0.00;99.90
75442;DHT22;64019;48.312;14.226;2024-01-16T05:57:33;0.00;99.90
75442;DHT22;64019;48.312;14.226;2024-01-16T05:59:59;0.00;99.90
75442;DHT22;64019;48.312;14.226;2024-01-16T06:02:28;0.00;99.90
75442;DHT22;64019;48.312;14.226;2024-01-16T06:04:54;0.00;99.90
75442;DHT22;64019;48.312;14.226;2024-01-16T06:07:19;0.00;99.90
75442;DHT22;64019;48.312;14.226;2024-01-16T06:09:45;0.00;99.90
75442;DHT22;64019;48.312;14.226;2024-01-16T06:12:11;0.00;99.90
75442;DHT22;64019;48.312;14.226;2024-01-16T06:14:38;0.00;99.90
75442;DHT22;64019;48.312;14.226;2024-01-16T06:17:04;0.00;99.90
75442;DHT22;64019;48.312;14.226;2024-01-16T06:19:32;0.00;99.90
75442;DHT22;64019;48.312;14.226;2024-01-16T06:21:58;0.00;99.90
75442;DHT22;64019;48.312;14.226;2024-01-16T06:24:25;0.00;99.90
75442;DHT22;64019;48.312;14.226;2024-01-16T06:26:51;0.00;99.90
75442;DHT22;64019;48.312;14.226;2024-01-16T06:29:16;-0.10;99.90
75442;DHT22;64019;48.312;14.226;2024-01-16T06:31:42;-0.10;99.90
75442;DHT22;64019;48.312;14.226;2024-01-16T06:34:08;-0.10;99.90
75442;DHT22;64019;48.312;14.226;2024-01-16T06:36:34;-0.10;99.90
75442;DHT22;64019;48.312;14.226;2024-01-16T06:39:00;-0.20;99.90
75442;DHT22;64019;48.312;14.226;2024-01-16T06:41:25;-0.20;99.90
75442;DHT22;64019;48.312;14.226;2024-01-16T06:43:51;-0.10;99.90
75442;DHT22;64019;48.312;14.226;2024-01-16T06:46:17;-0.10;99.90
75442;DHT22;64019;48.312;14.226;2024-01-16T06:48:43;-0.10;99.90
75442;DHT22;64019;48.312;14.226;2024-01-16T06:51:08;-0.10;99.90
75442;DHT22;64019;48.312;14.226;2024-01-16T06:53:36;-0.10;99.90
75442;DHT22;64019;48.312;14.226;2024-01-16T06:56:01;-0.10;99.90
75442;DHT22;64019;48.312;14.226;2024-01-16T06:58:28;-0.10;99.90
75442;DHT22;64019;48.312;14.226;2024-01-16T07:00:54;-0.10;99.90
75442;DHT22;64019;48.312;14.226;2024-01-16T07:03:20;-0.10;99.90
75442;DHT22;64019;48.312;14.226;2024-01-16T07:05:46;-0.10;99.90
75442;DHT22;64019;48.312;14.226;2024-01-16T07:08:12;-0.10;99.90
75442;DHT22;64019;48.312;14.226;2024-01-16T07:10:37;0.00;99.90
75442;DHT22;64019;48.312;14.226;2024-01-16T07:13:03;0.00;99.90
75442;DHT22;64019;48.312;14.226;2024-01-16T07:15:29;0.00;99.90
75442;DHT22;64019;48.312;14.226;2024-01-16T07:17:54;0.10;99.90
75442;DHT22;64019;48.312;14.226;2024-01-16T07:20:20;0.10;99.90
75442;DHT22;64019;48.312;14.226;2024-01-16T07:22:46;0.00;99.90
75442;DHT22;64019;48.312;14.226;2024-01-16T07:25:12;0.00;99.90
75442;DHT22;64019;48.312;14.226;2024-01-16T07:27:37;0.00;99.90
75442;DHT22;64019;48.312;14.226;2024-01-16T07:30:06;0.10;99.90
75442;DHT22;64019;48.312;14.226;2024-01-16T07:32:33;0.10;99.90
75442;DHT22;64019;48.312;14.226;2024-01-16T07:34:59;0.10;99.90
75442;DHT22;64019;48.312;14.226;2024-01-16T07:37:24;0.10;99.90
75442;DHT22;64019;48.312;14.226;2024-01-16T07:39:50;0.20;99.90
75442;DHT22;64019;48.312;14.226;2024-01-16T07:42:16;0.20;99.90
75442;DHT22;64019;48.312;14.226;2024-01-16T07:44:42;0.20;99.90
75442;DHT22;64019;48.312;14.226;2024-01-16T07:47:07;0.20;99.90
75442;DHT22;64019;48.312;14.226;2024-01-16T07:49:34;0.20;99.90
75442;DHT22;64019;48.312;14.226;2024-01-16T07:51:59;0.20;99.90
75442;DHT22;64019;48.312;14.226;2024-01-16T07:54:34;0.20;99.90
75442;DHT22;64019;48.312;14.226;2024-01-16T07:57:03;0.20;99.90
75442;DHT22;64019;48.312;14.226;2024-01-16T07:59:29;0.20;99.90
75442;DHT22;64019;48.312;14.226;2024-01-16T08:01:55;0.20;99.90
75442;DHT22;64019;48.312;14.226;2024-01-16T08:04:20;0.20;99.90
75442;DHT22;64019;48.312;14.226;2024-01-16T08:06:46;0.20;99.90
75442;DHT22;64019;48.312;14.226;2024-01-16T08:09:12;0.30;99.90
75442;DHT22;64019;48.312;14.226;2024-01-16T08:11:39;0.30;99.90
75442;DHT22;64019;48.312;14.226;2024-01-16T08:14:05;0.30;99.90
75442;DHT22;64019;48.312;14.226;2024-01-16T08:16:31;0.30;99.90
75442;DHT22;64019;48.312;14.226;2024-01-16T08:18:57;0.30;99.90
75442;DHT22;64019;48.312;14.226;2024-01-16T08:21:22;0.30;99.90
75442;DHT22;64019;48.312;14.226;2024-01-16T08:23:48;0.30;99.90
75442;DHT22;64019;48.312;14.226;2024-01-16T08:26:13;0.40;99.90
75442;DHT22;64019;48.312;14.226;2024-01-16T08:28:39;0.40;99.90
75442;DHT22;64019;48.312;14.226;2024-01-16T08:31:05;0.40;99.90
75442;DHT22;64019;48.312;14.226;2024-01-16T08:33:31;0.40;99.90
75442;DHT22;64019;48.312;14.226;2024-01-16T08:36:00;0.40;99.90
75442;DHT22;64019;48.312;14.226;2024-01-16T08:38:26;0.40;99.90
75442;DHT22;64019;48.312;14.226;2024-01-16T08:40:52;0.40;99.90
75442;DHT22;64019;48.312;14.226;2024-01-16T08:43:18;0.50;99.90
75442;DHT22;64019;48.312;14.226;2024-01-16T08:45:43;0.50;99.90
75442;DHT22;64019;48.312;14.226;2024-01-16T08:48:09;0.50;99.90
75442;DHT22;64019;48.312;14.226;2024-01-16T08:50:35;0.50;99.90
75442;DHT22;64019;48.312;14.226;2024-01-16T08:53:00;0.70;99.90
75442;DHT22;64019;48.312;14.226;2024-01-16T08:55:26;0.70;99.90
75442;DHT22;64019;48.312;14.226;2024-01-16T08:57:52;0.70;99.90
75442;DHT22;64019;48.312;14.226;2024-01-16T09:00:17;0.70;99.90
75442;DHT22;64019;48.312;14.226;2024-01-16T09:02:43;0.70;99.90
75442;DHT22;64019;48.312;14.226;2024-01-16T09:05:09;0.60;99.90
75442;DHT22;64019;48.312;14.226;2024-01-16T09:07:34;0.60;99.90
75442;DHT22;64019;48.312;14.226;2024-01-16T09:10:03;0.70;99.90
75442;DHT22;64019;48.312;14.226;2024-01-16T09:12:29;0.70;99.90
75442;DHT22;64019;48.312;14.226;2024-01-16T09:14:55;0.70;99.90
75442;DHT22;64019;48.312;14.226;2024-01-16T09:17:20;0.80;99.90
75442;DHT22;64019;48.312;14.226;2024-01-16T09:19:46;0.70;99.90
75442;DHT22;64019;48.312;14.226;2024-01-16T09:22:12;0.80;99.90
75442;DHT22;64019;48.312;14.226;2024-01-16T09:24:38;0.70;99.90
75442;DHT22;64019;48.312;14.226;2024-01-16T09:27:12;0.80;99.90
75442;DHT22;64019;48.312;14.226;2024-01-16T09:29:40;0.80;99.90
75442;DHT22;64019;48.312;14.226;2024-01-16T09:32:06;0.90;99.90
75442;DHT22;64019;48.312;14.226;2024-01-16T09:34:31;1.00;99.90
75442;DHT22;64019;48.312;14.226;2024-01-16T09:36:57;1.00;99.90
75442;DHT22;64019;48.312;14.226;2024-01-16T09:39:28;1.00;99.90
75442;DHT22;64019;48.312;14.226;2024-01-16T09:41:59;0.90;99.90
75442;DHT22;64019;48.312;14.226;2024-01-16T09:44:29;0.80;99.90
75442;DHT22;64019;48.312;14.226;2024-01-16T09:46:55;0.80;99.90
75442;DHT22;64019;48.312;14.226;2024-01-16T09:49:40;0.90;99.90
75442;DHT22;64019;48.312;14.226;2024-01-16T09:52:06;0.90;99.90
75442;DHT22;64019;48.312;14.226;2024-01-16T09:54:31;1.00;99.90
75442;DHT22;64019;48.312;14.226;2024-01-16T09:56:59;1.00;99.90
75442;DHT22;64019;48.312;14.226;2024-01-16T09:59:29;0.90;99.90
75442;DHT22;64019;48.312;14.226;2024-01-16T10:01:59;0.90;99.90
75442;DHT22;64019;48.312;14.226;2024-01-16T10:04:37;0.90;99.90
75442;DHT22;64019;48.312;14.226;2024-01-16T10:07:04;0.90;99.90
75442;DHT22;64019;48.312;14.226;2024-01-16T10:09:30;1.00;99.90
75442;DHT22;64019;48.312;14.226;2024-01-16T10:11:56;1.10;99.90
75442;DHT22;64019;48.312;14.226;2024-01-16T10:14:23;1.10;99.90
75442;DHT22;64019;48.312;14.226;2024-01-16T10:17:00;1.10;99.90
75442;DHT22;64019;48.312;14.226;2024-01-16T10:19:52;1.00;99.90
75442;DHT22;64019;48.312;14.226;2024-01-16T10:22:21;0.90;99.90
75442;DHT22;64019;48.312;14.226;2024-01-16T10:25:12;1.00;99.90
75442;DHT22;64019;48.312;14.226;2024-01-16T10:27:42;1.00;99.90
75442;DHT22;64019;48.312;14.226;2024-01-16T10:30:08;1.00;99.90
75442;DHT22;64019;48.312;14.226;2024-01-16T10:32:40;1.00;99.90
75442;DHT22;64019;48.312;14.226;2024-01-16T10:35:10;1.00;99.90
75442;DHT22;64019;48.312;14.226;2024-01-16T10:37:49;1.00;99.90
75442;DHT22;64019;48.312;14.226;2024-01-16T10:40:18;1.00;99.90
75442;DHT22;64019;48.312;14.226;2024-01-16T10:42:57;1.10;99.90
75442;DHT22;64019;48.312;14.226;2024-01-16T10:45:23;1.20;99.90
75442;DHT22;64019;48.312;14.226;2024-01-16T10:48:03;1.30;99.90
75442;DHT22;64019;48.312;14.226;2024-01-16T10:50:30;1.30;99.90
75442;DHT22;64019;48.312;14.226;2024-01-16T10:53:00;1.40;99.90
75442;DHT22;64019;48.312;14.226;2024-01-16T10:55:29;1.40;99.90
75442;DHT22;64019;48.312;14.226;2024-01-16T10:57:58;1.30;99.90
75442;DHT22;64019;48.312;14.226;2024-01-16T11:00:27;1.40;99.90
75442;DHT22;64019;48.312;14.226;2024-01-16T11:03:11;1.30;99.90
75442;DHT22;64019;48.312;14.226;2024-01-16T11:05:38;1.30;99.90
75442;DHT22;64019;48.312;14.226;2024-01-16T11:08:05;1.40;99.90
75442;DHT22;64019;48.312;14.226;2024-01-16T11:10:32;1.50;99.90
75442;DHT22;64019;48.312;14.226;2024-01-16T11:13:02;1.60;99.90
75442;DHT22;64019;48.312;14.226;2024-01-16T11:15:28;1.60;99.90
75442;DHT22;64019;48.312;14.226;2024-01-16T11:17:59;1.70;99.90
75442;DHT22;64019;48.312;14.226;2024-01-16T11:20:26;1.70;99.90
75442;DHT22;64019;48.312;14.226;2024-01-16T11:22:53;1.80;99.90
75442;DHT22;64019;48.312;14.226;2024-01-16T11:25:31;1.80;99.90
75442;DHT22;64019;48.312;14.226;2024-01-16T11:28:08;1.70;99.90
75442;DHT22;64019;48.312;14.226;2024-01-16T11:30:35;1.70;99.90
75442;DHT22;64019;48.312;14.226;2024-01-16T11:33:01;1.70;99.90
75442;DHT22;64019;48.312;14.226;2024-01-16T11:35:35;1.80;99.90
75442;DHT22;64019;48.312;14.226;2024-01-16T11:38:28;1.80;99.90
75442;DHT22;64019;48.312;14.226;2024-01-16T11:40:55;2.00;99.90
75442;DHT22;64019;48.312;14.226;2024-01-16T11:46:00;1.90;99.90
75442;DHT22;64019;48.312;14.226;2024-01-16T11:48:26;1.90;99.90
75442;DHT22;64019;48.312;14.226;2024-01-16T11:50:53;1.80;99.90
75442;DHT22;64019;48.312;14.226;2024-01-16T12:01:41;1.80;99.90
75442;DHT22;64019;48.312;14.226;2024-01-16T12:04:09;1.90;99.90
75442;DHT22;64019;48.312;14.226;2024-01-16T12:06:36;1.90;99.90
75442;DHT22;64019;48.312;14.226;2024-01-16T12:09:16;2.00;99.90
75442;DHT22;64019;48.312;14.226;2024-01-16T12:11:44;2.10;99.90
75442;DHT22;64019;48.312;14.226;2024-01-16T12:14:27;2.20;99.90
75442;DHT22;64019;48.312;14.226;2024-01-16T12:17:08;2.30;99.90
75442;DHT22;64019;48.312;14.226;2024-01-16T12:19:37;2.20;99.90
75442;DHT22;64019;48.312;14.226;2024-01-16T12:22:13;2.10;99.90
75442;DHT22;64019;48.312;14.226;2024-01-16T12:24:39;2.30;99.90
75442;DHT22;64019;48.312;14.226;2024-01-16T12:27:06;2.40;99.90
75442;DHT22;64019;48.312;14.226;2024-01-16T12:29:32;2.30;99.90
75442;DHT22;64019;48.312;14.226;2024-01-16T12:32:11;2.30;99.90
75442;DHT22;64019;48.312;14.226;2024-01-16T12:34:45;2.30;99.90
75442;DHT22;64019;48.312;14.226;2024-01-16T12:37:11;2.30;99.90
75442;DHT22;64019;48.312;14.226;2024-01-16T12:39:38;2.40;99.90
75442;DHT22;64019;48.312;14.226;2024-01-16T12:42:05;2.50;99.90
75442;DHT22;64019;48.312;14.226;2024-01-16T12:44:31;2.40;99.90
75442;DHT22;64019;48.312;14.226;2024-01-16T12:46:57;2.40;99.90
75442;DHT22;64019;48.312;14.226;2024-01-16T12:49:23;2.30;99.90
75442;DHT22;64019;48.312;14.226;2024-01-16T12:51:50;2.30;99.90
75442;DHT22;64019;48.312;14.226;2024-01-16T12:54:17;2.10;99.90
75442;DHT22;64019;48.312;14.226;2024-01-16T12:56:47;2.10;99.90
75442;DHT22;64019;48.312;14.226;2024-01-16T12:59:14;2.00;99.90
75442;DHT22;64019;48.312;14.226;2024-01-16T13:01:43;2.20;99.90
75442;DHT22;64019;48.312;14.226;2024-01-16T13:04:17;2.40;99.90
75442;DHT22;64019;48.312;14.226;2024-01-16T13:06:46;2.50;99.90
75442;DHT22;64019;48.312;14.226;2024-01-16T13:09:16;2.70;99.90
75442;DHT22;64019;48.312;14.226;2024-01-16T13:11:59;2.80;99.90
75442;DHT22;64019;48.312;14.226;2024-01-16T13:14:25;2.80;99.90
75442;DHT22;64019;48.312;14.226;2024-01-16T13:16:52;2.70;99.90
75442;DHT22;64019;48.312;14.226;2024-01-16T13:19:19;2.70;99.90
75442;DHT22;64019;48.312;14.226;2024-01-16T13:21:46;2.60;99.90
75442;DHT22;64019;48.312;14.226;2024-01-16T13:24:14;2.60;99.90
75442;DHT22;64019;48.312;14.226;2024-01-16T13:26:40;2.50;99.90
75442;DHT22;64019;48.312;14.226;2024-01-16T13:29:06;2.60;99.90
75442;DHT22;64019;48.312;14.226;2024-01-16T13:31:32;2.50;99.90
75442;DHT22;64019;48.312;14.226;2024-01-16T13:33:58;2.50;99.90
75442;DHT22;64019;48.312;14.226;2024-01-16T13:36:24;2.40;99.90
75442;DHT22;64019;48.312;14.226;2024-01-16T13:38:50;2.40;99.90
75442;DHT22;64019;48.312;14.226;2024-01-16T13:41:16;2.40;99.90
75442;DHT22;64019;48.312;14.226;2024-01-16T13:43:42;2.40;99.90
75442;DHT22;64019;48.312;14.226;2024-01-16T13:46:08;2.40;99.90
75442;DHT22;64019;48.312;14.226;2024-01-16T13:48:38;2.40;99.90
75442;DHT22;64019;48.312;14.226;2024-01-16T13:51:06;2.30;99.90
75442;DHT22;64019;48.312;14.226;2024-01-16T13:53:32;2.30;99.90
75442;DHT22;64019;48.312;14.226;2024-01-16T13:56:00;2.40;99.90
75442;DHT22;64019;48.312;14.226;2024-01-16T13:58:26;2.50;99.90
75442;DHT22;64019;48.312;14.226;2024-01-16T14:00:52;2.40;99.90
75442;DHT22;64019;48.312;14.226;2024-01-16T14:03:17;2.50;99.90
75442;DHT22;64019;48.312;14.226;2024-01-16T14:05:46;2.50;99.90
75442;DHT22;64019;48.312;14.226;2024-01-16T14:08:12;2.50;99.90
75442;DHT22;64019;48.312;14.226;2024-01-16T14:10:38;2.60;99.90
75442;DHT22;64019;48.312;14.226;2024-01-16T14:13:04;2.60;99.90
75442;DHT22;64019;48.312;14.226;2024-01-16T14:15:30;2.60;99.90
75442;DHT22;64019;48.312;14.226;2024-01-16T14:17:56;2.50;99.90
75442;DHT22;64019;48.312;14.226;2024-01-16T14:20:24;2.60;99.90
75442;DHT22;64019;48.312;14.226;2024-01-16T14:22:52;2.50;99.90
75442;DHT22;64019;48.312;14.226;2024-01-16T14:25:18;2.50;99.90
75442;DHT22;64019;48.312;14.226;2024-01-16T14:28:04;2.60;99.90
75442;DHT22;64019;48.312;14.226;2024-01-16T14:30:32;2.60;99.90
75442;DHT22;64019;48.312;14.226;2024-01-16T14:32:58;2.60;99.90
75442;DHT22;64019;48.312;14.226;2024-01-16T14:35:24;2.50;99.90
75442;DHT22;64019;48.312;14.226;2024-01-16T14:37:50;2.50;99.90
75442;DHT22;64019;48.312;14.226;2024-01-16T14:40:16;2.50;99.90
75442;DHT22;64019;48.312;14.226;2024-01-16T14:42:54;2.50;99.90
75442;DHT22;64019;48.312;14.226;2024-01-16T14:45:22;2.50;99.90
75442;DHT22;64019;48.312;14.226;2024-01-16T14:47:49;2.40;99.90
75442;DHT22;64019;48.312;14.226;2024-01-16T14:50:16;2.30;99.90
75442;DHT22;64019;48.312;14.226;2024-01-16T14:52:43;2.20;99.90
75442;DHT22;64019;48.312;14.226;2024-01-16T14:55:09;2.10;99.90
75442;DHT22;64019;48.312;14.226;2024-01-16T14:57:38;2.00;99.90
75442;DHT22;64019;48.312;14.226;2024-01-16T15:00:17;2.00;99.90
75442;DHT22;64019;48.312;14.226;2024-01-16T15:02:52;2.10;99.90
75442;DHT22;64019;48.312;14.226;2024-01-16T15:05:19;2.00;99.90
75442;DHT22;64019;48.312;14.226;2024-01-16T15:07:46;2.00;99.90
75442;DHT22;64019;48.312;14.226;2024-01-16T15:10:12;2.00;99.90
75442;DHT22;64019;48.312;14.226;2024-01-16T15:12:43;2.00;99.90
75442;DHT22;64019;48.312;14.226;2024-01-16T15:15:10;2.00;99.90
75442;DHT22;64019;48.312;14.226;2024-01-16T15:17:37;2.00;99.90
75442;DHT22;64019;48.312;14.226;2024-01-16T15:20:04;2.00;99.90
75442;DHT22;64019;48.312;14.226;2024-01-16T15:22:36;2.00;99.90
75442;DHT22;64019;48.312;14.226;2024-01-16T15:25:02;1.90;99.90
75442;DHT22;64019;48.312;14.226;2024-01-16T15:27:30;1.90;99.90
75442;DHT22;64019;48.312;14.226;2024-01-16T15:29:56;1.80;99.90
75442;DHT22;64019;48.312;14.226;2024-01-16T15:32:23;1.70;99.90
75442;DHT22;64019;48.312;14.226;2024-01-16T15:34:49;1.50;99.90
75442;DHT22;64019;48.312;14.226;2024-01-16T15:37:15;1.40;99.90
75442;DHT22;64019;48.312;14.226;2024-01-16T15:39:40;1.20;99.90
75442;DHT22;64019;48.312;14.226;2024-01-16T15:42:06;1.10;99.90